XSR71 KIWA-KVNY
Flight info
| Callsign | XSR71 |
|---|---|
| Flight time | N/A |
| Altitude | 43000 |
| Route | IZZZO8 HRRBR PHRED THRNE4 |
| Aircraft | C750/M-SBDE3FGHRWXY/S |
Departure
| Time | 2026-04-28 04:33 |
|---|---|
| Airport | Mesa Gateway Airport (KIWA) |
Arrival
| Time | N/A |
|---|---|
| Airport | Van Nuys Airport (KVNY) |
| Time | Latitude | Longitude | Altitude | Speed | Heading |
|---|---|---|---|---|---|
| 2026-04-28 04:28 | 33.29844 | -111.65044 | 1374 ft | 0 kts | 316° |
| 2026-04-28 04:32 | 33.29845 | -111.65045 | 1374 ft | 3 kts | 316° |
| 2026-04-28 04:32 | 33.30112 | -111.65351 | 1372 ft | 110 kts | 315° |
| 2026-04-28 04:33 | 33.30806 | -111.66171 | 1558 ft | 153 kts | 314° |
| 2026-04-28 04:33 | 33.31590 | -111.67075 | 2219 ft | 161 kts | 315° |
| 2026-04-28 04:33 | 33.32387 | -111.67966 | 3178 ft | 154 kts | 315° |
| 2026-04-28 04:33 | 33.33181 | -111.68863 | 3919 ft | 166 kts | 314° |
| 2026-04-28 04:34 | 33.33662 | -111.70239 | 4169 ft | 199 kts | 277° |
| 2026-04-28 04:34 | 33.33797 | -111.71993 | 4592 ft | 225 kts | 275° |
| 2026-04-28 04:34 | 33.34037 | -111.73939 | 5301 ft | 245 kts | 279° |
| 2026-04-28 04:34 | 33.34332 | -111.75998 | 6073 ft | 257 kts | 278° |
| 2026-04-28 04:35 | 33.34616 | -111.78137 | 7004 ft | 262 kts | 278° |
| 2026-04-28 04:35 | 33.34895 | -111.80319 | 8034 ft | 268 kts | 277° |
| 2026-04-28 04:35 | 33.35182 | -111.82555 | 9049 ft | 276 kts | 277° |
| 2026-04-28 04:35 | 33.35482 | -111.84842 | 10042 ft | 281 kts | 277° |
| 2026-04-28 04:36 | 33.35782 | -111.87151 | 11040 ft | 281 kts | 276° |
| 2026-04-28 04:36 | 33.36082 | -111.89462 | 12048 ft | 280 kts | 275° |
| 2026-04-28 04:36 | 33.36372 | -111.91690 | 13267 ft | 269 kts | 274° |
| 2026-04-28 04:36 | 33.36655 | -111.93861 | 14483 ft | 259 kts | 273° |
| 2026-04-28 04:37 | 33.36921 | -111.95934 | 15692 ft | 246 kts | 273° |
| 2026-04-28 04:37 | 33.37176 | -111.97911 | 16898 ft | 234 kts | 273° |
| 2026-04-28 04:37 | 33.37417 | -111.99773 | 18093 ft | 219 kts | 272° |
| 2026-04-28 04:37 | 33.37643 | -112.01521 | 19275 ft | 205 kts | 272° |
| 2026-04-28 04:38 | 33.37851 | -112.03153 | 20329 ft | 198 kts | 271° |
| 2026-04-28 04:38 | 33.38059 | -112.04858 | 20795 ft | 215 kts | 271° |
| 2026-04-28 04:38 | 33.38290 | -112.06693 | 21293 ft | 230 kts | 272° |
| 2026-04-28 04:38 | 33.38542 | -112.08641 | 21803 ft | 244 kts | 272° |
| 2026-04-28 04:39 | 33.38806 | -112.10700 | 22329 ft | 257 kts | 272° |
| 2026-04-28 04:39 | 33.39083 | -112.12871 | 22860 ft | 269 kts | 272° |
| 2026-04-28 04:39 | 33.39372 | -112.15133 | 23397 ft | 281 kts | 272° |
| 2026-04-28 04:39 | 33.39672 | -112.17487 | 23926 ft | 291 kts | 272° |
| 2026-04-28 04:40 | 33.39982 | -112.19925 | 24451 ft | 302 kts | 272° |
| 2026-04-28 04:40 | 33.40301 | -112.22451 | 24988 ft | 311 kts | 272° |
| 2026-04-28 04:40 | 33.40631 | -112.25043 | 25504 ft | 320 kts | 272° |
| 2026-04-28 04:40 | 33.40964 | -112.27674 | 26006 ft | 327 kts | 273° |
| 2026-04-28 04:41 | 33.41305 | -112.30340 | 27029 ft | 317 kts | 273° |
| 2026-04-28 04:41 | 33.41632 | -112.32891 | 28166 ft | 301 kts | 273° |
| 2026-04-28 04:41 | 33.41934 | -112.35287 | 29274 ft | 281 kts | 272° |
| 2026-04-28 04:41 | 33.42212 | -112.37505 | 30360 ft | 258 kts | 272° |
| 2026-04-28 04:42 | 33.42467 | -112.39530 | 31434 ft | 235 kts | 271° |
| 2026-04-28 04:42 | 33.42699 | -112.41371 | 32494 ft | 212 kts | 270° |
| 2026-04-28 04:42 | 33.42906 | -112.43022 | 33547 ft | 189 kts | 269° |
| 2026-04-28 04:42 | 33.43090 | -112.44483 | 34588 ft | 166 kts | 268° |
| 2026-04-28 04:43 | 33.43249 | -112.45745 | 35608 ft | 140 kts | 267° |
| 2026-04-28 04:43 | 33.43382 | -112.46773 | 36551 ft | 112 kts | 265° |
| 2026-04-28 04:43 | 33.43486 | -112.47722 | 36647 ft | 123 kts | 265° |
| 2026-04-28 04:43 | 33.43609 | -112.48787 | 36676 ft | 138 kts | 266° |
| 2026-04-28 04:44 | 33.43755 | -112.49992 | 36741 ft | 151 kts | 266° |
| 2026-04-28 04:44 | 33.43915 | -112.51290 | 36850 ft | 164 kts | 267° |
| 2026-04-28 04:44 | 33.44088 | -112.52668 | 36994 ft | 175 kts | 268° |
| 2026-04-28 04:44 | 33.44273 | -112.54156 | 37168 ft | 185 kts | 268° |
| 2026-04-28 04:45 | 33.44464 | -112.55561 | 38232 ft | 147 kts | 268° |
| 2026-04-28 04:45 | 33.44607 | -112.56562 | 39475 ft | 106 kts | 264° |
| 2026-04-28 04:45 | 33.44684 | -112.57596 | 38293 ft | 154 kts | 263° |
| 2026-04-28 04:45 | 33.44665 | -112.59203 | 35619 ft | 234 kts | 262° |
| 2026-04-28 04:46 | 33.44681 | -112.61504 | 33691 ft | 311 kts | 269° |
| 2026-04-28 04:46 | 33.44943 | -112.64124 | 33958 ft | 320 kts | 271° |
| 2026-04-28 04:46 | 33.45153 | -112.66679 | 35294 ft | 287 kts | 268° |
| 2026-04-28 04:46 | 33.45188 | -112.68868 | 37388 ft | 239 kts | 264° |
| 2026-04-28 04:47 | 33.45173 | -112.70680 | 39136 ft | 203 kts | 263° |
| 2026-04-28 04:47 | 33.45175 | -112.72389 | 39402 ft | 213 kts | 263° |
| 2026-04-28 04:47 | 33.45193 | -112.74236 | 39410 ft | 229 kts | 264° |
| 2026-04-28 04:47 | 33.45222 | -112.76187 | 39481 ft | 243 kts | 264° |
| 2026-04-28 04:48 | 33.45252 | -112.78258 | 39598 ft | 255 kts | 265° |
| 2026-04-28 04:48 | 33.45404 | -112.80430 | 39739 ft | 269 kts | 270° |
| 2026-04-28 04:48 | 33.45773 | -112.82690 | 39902 ft | 283 kts | 274° |
| 2026-04-28 04:48 | 33.46222 | -112.85024 | 40074 ft | 292 kts | 274° |
| 2026-04-28 04:49 | 33.46668 | -112.87434 | 40241 ft | 301 kts | 274° |
| 2026-04-28 04:49 | 33.47124 | -112.89858 | 40980 ft | 286 kts | 275° |
| 2026-04-28 04:49 | 33.47550 | -112.92009 | 42628 ft | 250 kts | 274° |
| 2026-04-28 04:49 | 33.47922 | -112.94036 | 42964 ft | 254 kts | 273° |
| 2026-04-28 04:50 | 33.48291 | -112.96154 | 42980 ft | 265 kts | 274° |
| 2026-04-28 04:50 | 33.48700 | -112.98364 | 42987 ft | 278 kts | 275° |
| 2026-04-28 04:50 | 33.49137 | -113.00666 | 42992 ft | 289 kts | 275° |
| 2026-04-28 04:50 | 33.49584 | -113.03058 | 43021 ft | 300 kts | 275° |
| 2026-04-28 04:51 | 33.50045 | -113.05550 | 43018 ft | 312 kts | 275° |
| 2026-04-28 04:51 | 33.50524 | -113.08135 | 43020 ft | 323 kts | 275° |
| 2026-04-28 04:51 | 33.51021 | -113.10814 | 43019 ft | 335 kts | 276° |
| 2026-04-28 04:51 | 33.51527 | -113.13543 | 43016 ft | 346 kts | 276° |
| 2026-04-28 04:52 | 33.52057 | -113.16407 | 43006 ft | 357 kts | 276° |
| 2026-04-28 04:52 | 33.53161 | -113.22386 | 43004 ft | 378 kts | 276° |
| 2026-04-28 04:53 | 33.54323 | -113.28700 | 43005 ft | 397 kts | 276° |
| 2026-04-28 04:53 | 33.55536 | -113.35314 | 43011 ft | 414 kts | 277° |
| 2026-04-28 04:54 | 33.56792 | -113.42179 | 43013 ft | 427 kts | 277° |
| 2026-04-28 04:54 | 33.58068 | -113.49178 | 43012 ft | 436 kts | 277° |
| 2026-04-28 04:55 | 33.59387 | -113.56323 | 42994 ft | 439 kts | 277° |
| 2026-04-28 04:55 | 33.60725 | -113.63425 | 42992 ft | 437 kts | 277° |
| 2026-04-28 04:56 | 33.62039 | -113.70548 | 42994 ft | 438 kts | 277° |
| 2026-04-28 04:56 | 33.63371 | -113.77710 | 42997 ft | 439 kts | 277° |
| 2026-04-28 04:57 | 33.64618 | -113.84861 | 42981 ft | 435 kts | 274° |
| 2026-04-28 04:57 | 33.64908 | -113.92053 | 42996 ft | 431 kts | 266° |
| 2026-04-28 04:58 | 33.64791 | -113.99271 | 42996 ft | 433 kts | 266° |
| 2026-04-28 04:58 | 33.64675 | -114.06482 | 42993 ft | 431 kts | 266° |
| 2026-04-28 04:59 | 33.64728 | -114.13639 | 42975 ft | 435 kts | 271° |
| 2026-04-28 04:59 | 33.65454 | -114.20832 | 42991 ft | 433 kts | 272° |
| 2026-04-28 05:00 | 33.66151 | -114.28036 | 42998 ft | 435 kts | 272° |
| 2026-04-28 05:00 | 33.66875 | -114.35253 | 42994 ft | 434 kts | 272° |
| 2026-04-28 05:01 | 33.67577 | -114.42458 | 42983 ft | 434 kts | 272° |
| 2026-04-28 05:01 | 33.68282 | -114.49646 | 42979 ft | 433 kts | 272° |
| 2026-04-28 05:02 | 33.68977 | -114.56834 | 42985 ft | 435 kts | 272° |
| 2026-04-28 05:02 | 33.69671 | -114.64011 | 42986 ft | 435 kts | 272° |
| 2026-04-28 05:03 | 33.70361 | -114.71211 | 42987 ft | 432 kts | 272° |
| 2026-04-28 05:03 | 33.71044 | -114.78398 | 42985 ft | 434 kts | 272° |
| 2026-04-28 05:04 | 33.71727 | -114.85600 | 42990 ft | 435 kts | 272° |
| 2026-04-28 05:04 | 33.72406 | -114.92817 | 42981 ft | 434 kts | 272° |